Time;durP1;ratioP1;P1;durP2;ratioP2;P2;SDS_P1;SDS_P2;PMS_P1;PMS_P2;Temp;Humidity;BMP_temperature;BMP_pressure;BME280_temperature;BME280_humidity;BME280_pressure;Samples;Min_cycle;Max_cycle;Signal;HPM_P1;HPM_P2
2022/12/24 00:01:07;;;;;;;6.97;3.08;;;7.70;99.90;;;;;;5104332;28;20322;-67
2022/12/24 00:03:34;;;;;;;5.13;2.65;;;7.70;99.90;;;;;;5109186;28;20039;-67
2022/12/24 00:06:03;;;;;;;4.60;2.42;;;7.70;99.90;;;;;;5127794;28;20035;-67
2022/12/24 00:08:29;;;;;;;5.57;2.55;;;7.70;99.90;;;;;;5107786;28;20507;-67
2022/12/24 00:10:55;;;;;;;5.75;2.38;;;7.70;99.90;;;;;;5140981;27;20046;-67
2022/12/24 00:13:20;;;;;;;4.28;2.55;;;7.70;99.90;;;;;;5061248;28;20406;-67
2022/12/24 00:15:47;;;;;;;4.20;1.75;;;7.70;99.90;;;;;;5080403;28;20041;-67
2022/12/24 00:18:12;;;;;;;5.80;3.10;;;7.80;99.90;;;;;;5082607;28;20036;-67
2022/12/24 00:20:38;;;;;;;10.38;2.97;;;7.70;99.90;;;;;;5082044;28;20032;-67
2022/12/24 00:23:04;;;;;;;5.30;2.08;;;7.70;99.90;;;;;;5096022;28;20497;-67
2022/12/24 00:25:29;;;;;;;4.95;2.55;;;7.70;99.90;;;;;;5081012;28;20044;-67
2022/12/24 00:27:55;;;;;;;5.68;2.63;;;7.70;99.90;;;;;;5088363;28;20398;-67
2022/12/24 00:30:20;;;;;;;7.45;3.25;;;7.70;99.90;;;;;;5081098;28;20037;-67
2022/12/24 00:32:46;;;;;;;9.10;3.20;;;7.70;99.90;;;;;;5118185;27;20501;-67
2022/12/24 00:35:11;;;;;;;6.30;2.67;;;7.70;99.90;;;;;;5080690;28;20037;-67
2022/12/24 00:37:37;;;;;;;6.88;2.53;;;7.70;99.90;;;;;;5097744;28;20110;-67
2022/12/24 00:40:03;;;;;;;6.55;3.30;;;7.70;99.90;;;;;;5083314;28;20039;-67
2022/12/24 00:42:29;;;;;;;6.82;3.42;;;7.70;99.90;;;;;;5083452;28;20127;-67
2022/12/24 00:44:54;;;;;;;6.30;3.35;;;7.70;99.90;;;;;;5098806;28;20449;-67
2022/12/24 00:47:20;;;;;;;4.70;2.75;;;7.70;99.90;;;;;;5068865;28;20051;-67
2022/12/24 00:49:45;;;;;;;6.82;3.17;;;7.70;99.90;;;;;;5078413;28;20036;-68
2022/12/24 00:52:11;;;;;;;5.97;2.33;;;7.70;99.90;;;;;;5082210;28;20093;-67
2022/12/24 00:54:37;;;;;;;5.85;3.00;;;7.70;99.90;;;;;;5087142;28;20040;-67
2022/12/24 00:57:02;;;;;;;6.93;3.50;;;7.70;99.90;;;;;;5077225;28;20072;-67
2022/12/24 00:59:28;;;;;;;8.43;2.85;;;7.70;99.90;;;;;;5081659;28;20028;-67
2022/12/24 01:01:53;;;;;;;5.90;2.88;;;7.70;99.90;;;;;;5085245;28;20044;-67
2022/12/24 01:07:03;;;;;;;6.47;2.97;;;7.70;99.90;;;;;;5079226;28;20052;-68
2022/12/24 01:09:29;;;;;;;9.18;3.83;;;7.70;99.90;;;;;;5082579;28;20055;-68
2022/12/24 01:11:54;;;;;;;7.10;3.22;;;7.70;99.90;;;;;;5099893;27;20122;-67
2022/12/24 01:14:20;;;;;;;6.57;3.33;;;7.70;99.90;;;;;;5105981;27;20055;-67
2022/12/24 01:16:46;;;;;;;9.70;3.25;;;7.70;99.90;;;;;;5110199;27;20077;-68
2022/12/24 01:19:11;;;;;;;6.30;3.22;;;7.70;99.90;;;;;;5143286;27;20496;-67
2022/12/24 01:21:37;;;;;;;8.05;3.92;;;7.70;99.90;;;;;;5095943;27;20479;-67
2022/12/24 01:24:03;;;;;;;6.80;3.67;;;7.70;99.90;;;;;;5092482;27;20039;-67
2022/12/24 01:26:28;;;;;;;7.78;2.83;;;7.70;99.90;;;;;;5107070;27;20069;-68
2022/12/24 01:28:56;;;;;;;7.00;3.05;;;7.70;99.90;;;;;;5114719;27;20093;-67
2022/12/24 01:31:21;;;;;;;7.82;3.53;;;7.70;99.90;;;;;;5122094;27;20411;-67
2022/12/24 01:33:48;;;;;;;6.25;3.35;;;7.70;99.90;;;;;;5126721;27;20039;-68
2022/12/24 01:36:13;;;;;;;7.57;3.40;;;7.80;99.90;;;;;;5139214;27;20046;-67
2022/12/24 01:38:39;;;;;;;7.82;3.55;;;7.70;99.90;;;;;;5106565;27;20039;-68
2022/12/24 01:43:49;;;;;;;9.15;4.00;;;7.70;99.90;;;;;;5109416;27;20043;-67
2022/12/24 01:46:28;;;;;;;9.55;4.25;;;7.70;99.90;;;;;;5105861;27;20035;-67
2022/12/24 01:49:00;;;;;;;9.90;3.90;;;7.70;99.90;;;;;;5106657;27;20065;-68
2022/12/24 01:51:32;;;;;;;9.93;4.60;;;7.80;99.90;;;;;;5108242;27;20047;-67
2022/12/24 01:54:31;;;;;;;6.43;3.13;;;7.70;99.90;;;;;;5123194;27;20487;-67
2022/12/24 01:57:03;;;;;;;12.38;3.50;;;7.80;99.90;;;;;;5104644;27;20756;-68
2022/12/24 01:59:29;;;;;;;7.72;3.42;;;7.80;99.90;;;;;;5112928;27;20034;-67
2022/12/24 02:01:55;;;;;;;7.55;3.45;;;7.90;99.90;;;;;;5107884;27;20031;-68
2022/12/24 02:04:38;;;;;;;14.40;4.57;;;7.90;99.90;;;;;;5106664;27;20070;-68
2022/12/24 02:07:04;;;;;;;9.18;2.88;;;7.90;99.90;;;;;;5127329;27;20038;-68
2022/12/24 02:09:30;;;;;;;7.95;3.08;;;7.90;99.90;;;;;;5140862;27;20051;-68
2022/12/24 02:11:57;;;;;;;9.07;3.08;;;8.00;99.90;;;;;;5125698;27;20054;-68
2022/12/24 02:14:25;;;;;;;6.35;3.78;;;8.00;99.90;;;;;;5127944;27;20496;-67
2022/12/24 02:17:09;;;;;;;6.85;4.05;;;8.00;99.90;;;;;;5105673;27;20031;-68
2022/12/24 02:19:59;;;;;;;7.65;2.92;;;8.00;99.90;;;;;;5126050;27;20043;-67
2022/12/24 02:22:45;;;;;;;8.30;3.63;;;8.10;99.90;;;;;;5106074;27;20057;-67
2022/12/24 02:25:37;;;;;;;6.97;2.55;;;8.10;99.90;;;;;;5125743;27;20031;-68
2022/12/24 02:28:30;;;;;;;7.97;3.83;;;8.10;99.90;;;;;;5117987;27;20035;-67
2022/12/24 02:31:04;;;;;;;6.72;2.90;;;8.10;99.90;;;;;;5103715;27;20473;-67
2022/12/24 02:33:40;;;;;;;6.20;3.10;;;8.10;99.90;;;;;;5138183;27;20051;-68
2022/12/24 02:36:14;;;;;;;6.80;2.35;;;8.20;99.90;;;;;;5123181;27;20125;-67
2022/12/24 02:38:53;;;;;;;4.78;2.28;;;8.20;99.90;;;;;;5138115;27;20077;-68
2022/12/24 02:41:23;;;;;;;6.35;3.13;;;8.20;99.90;;;;;;5124940;27;20393;-67
2022/12/24 02:43:51;;;;;;;4.95;2.47;;;8.30;99.90;;;;;;5109803;27;20234;-68
2022/12/24 02:46:25;;;;;;;4.95;1.90;;;8.30;99.90;;;;;;5105161;27;20044;-67
2022/12/24 02:48:51;;;;;;;11.02;2.70;;;8.30;99.90;;;;;;5108835;27;20043;-68
2022/12/24 02:51:23;;;;;;;4.43;2.08;;;8.30;99.90;;;;;;5110404;27;20484;-67
2022/12/24 02:53:48;;;;;;;3.17;1.70;;;8.30;99.90;;;;;;5123834;27;20035;-67
2022/12/24 02:56:25;;;;;;;2.38;1.30;;;8.30;99.90;;;;;;5108511;27;20376;-67
2022/12/24 02:59:08;;;;;;;3.85;1.85;;;8.40;99.90;;;;;;5135312;27;20038;-67
2022/12/24 03:01:40;;;;;;;3.67;0.70;;;8.40;99.90;;;;;;5126016;27;20031;-67
2022/12/24 03:04:38;;;;;;;1.70;0.73;;;8.40;99.90;;;;;;5138519;27;20043;-67
2022/12/24 03:07:17;;;;;;;4.00;1.30;;;8.40;99.90;;;;;;5126303;27;20373;-67
2022/12/24 03:10:04;;;;;;;2.85;1.08;;;8.50;99.90;;;;;;5130058;27;20965;-67
2022/12/24 03:12:36;;;;;;;3.78;1.30;;;8.50;99.90;;;;;;5123863;27;20112;-67
2022/12/24 03:15:04;;;;;;;2.22;1.10;;;8.50;99.90;;;;;;5122827;27;20047;-67
2022/12/24 03:17:33;;;;;;;1.70;1.08;;;8.50;99.90;;;;;;5089476;27;20035;-67
2022/12/24 03:19:59;;;;;;;5.15;1.52;;;8.50;99.90;;;;;;5107241;27;20567;-67
2022/12/24 03:22:26;;;;;;;4.80;0.98;;;8.50;99.90;;;;;;5107403;28;20031;-67
2022/12/24 03:24:51;;;;;;;4.72;1.27;;;8.50;99.90;;;;;;5141727;27;20035;-67
2022/12/24 03:27:17;;;;;;;1.85;0.85;;;8.50;99.90;;;;;;5125562;27;20087;-67
2022/12/24 03:29:44;;;;;;;2.53;0.95;;;8.50;99.90;;;;;;5124151;27;20031;-67
2022/12/24 03:32:10;;;;;;;6.40;1.75;;;8.50;99.90;;;;;;5103199;27;20623;-67
2022/12/24 03:34:35;;;;;;;6.68;1.25;;;8.50;99.90;;;;;;5128519;28;20053;-67
2022/12/24 03:37:02;;;;;;;2.78;0.70;;;8.50;99.90;;;;;;5106165;27;20035;-67
2022/12/24 03:39:27;;;;;;;1.83;0.75;;;8.50;99.90;;;;;;5090721;28;20039;-67
2022/12/24 03:41:53;;;;;;;3.28;1.08;;;8.50;99.90;;;;;;5139408;27;20054;-67
2022/12/24 03:44:18;;;;;;;9.20;1.40;;;8.60;99.90;;;;;;5105421;28;20038;-67
2022/12/24 03:46:44;;;;;;;2.50;0.52;;;8.50;99.90;;;;;;5141051;27;20039;-67
2022/12/24 03:49:10;;;;;;;2.17;0.88;;;8.50;99.90;;;;;;5109414;27;20043;-67
2022/12/24 03:51:35;;;;;;;1.42;0.82;;;8.50;99.90;;;;;;5144395;27;20124;-67
2022/12/24 03:54:01;;;;;;;4.53;1.63;;;8.50;99.90;;;;;;5128163;27;20449;-67
2022/12/24 03:56:26;;;;;;;3.58;0.60;;;8.50;99.90;;;;;;5111899;27;20071;-67
2022/12/24 03:58:52;;;;;;;1.42;0.80;;;8.50;99.90;;;;;;5129889;27;20035;-67
2022/12/24 04:01:18;;;;;;;2.55;0.60;;;8.50;99.90;;;;;;5143321;27;20035;-67
2022/12/24 04:03:43;;;;;;;10.10;0.77;;;8.50;99.90;;;;;;5115850;27;20504;-67
2022/12/24 04:06:12;;;;;;;5.85;1.13;;;8.60;99.90;;;;;;5128197;27;20030;-67
2022/12/24 04:08:38;;;;;;;2.50;0.52;;;8.60;99.90;;;;;;5141448;27;20377;-68
2022/12/24 04:11:06;;;;;;;5.43;0.70;;;8.60;99.90;;;;;;5107724;27;20050;-67
2022/12/24 04:13:31;;;;;;;6.78;0.80;;;8.50;99.90;;;;;;5110896;27;20058;-67
2022/12/24 04:16:06;;;;;;;4.10;1.00;;;8.60;99.90;;;;;;5106861;27;20031;-67
2022/12/24 04:18:32;;;;;;;9.40;1.13;;;8.50;99.90;;;;;;5142947;27;20562;-67
2022/12/24 04:20:58;;;;;;;10.30;1.20;;;8.50;99.90;;;;;;5128304;27;20051;-67
2022/12/24 04:23:24;;;;;;;3.72;0.47;;;8.50;99.90;;;;;;5142790;27;20043;-67
2022/12/24 04:25:50;;;;;;;4.60;0.52;;;8.50;99.90;;;;;;5145536;27;20039;-67
2022/12/24 04:28:16;;;;;;;6.70;1.75;;;8.50;99.90;;;;;;5111252;27;20480;-67
2022/12/24 04:30:42;;;;;;;3.40;0.55;;;8.50;99.90;;;;;;5113656;27;20126;-68
2022/12/24 04:33:08;;;;;;;12.18;1.23;;;8.50;99.90;;;;;;5131754;27;20039;-68
2022/12/24 04:35:39;;;;;;;9.10;1.02;;;8.50;99.90;;;;;;5133927;27;20031;-68
2022/12/24 04:38:04;;;;;;;1.13;0.35;;;8.60;99.90;;;;;;5104264;27;20072;-68
2022/12/24 04:40:30;;;;;;;12.85;0.95;;;8.50;99.90;;;;;;5126964;27;20027;-67
2022/12/24 04:42:55;;;;;;;10.82;0.98;;;8.50;99.90;;;;;;5110993;27;20110;-68
2022/12/24 04:45:21;;;;;;;3.88;1.40;;;8.50;99.90;;;;;;5128809;27;20832;-68
2022/12/24 04:47:47;;;;;;;1.40;0.50;;;8.50;99.90;;;;;;5093102;27;20080;-67
2022/12/24 04:50:12;;;;;;;9.55;1.33;;;8.50;99.90;;;;;;5108864;27;20036;-68
2022/12/24 04:52:38;;;;;;;4.82;1.05;;;8.50;99.90;;;;;;5096609;27;20035;-68
2022/12/24 04:55:04;;;;;;;14.07;1.33;;;8.50;99.90;;;;;;5130617;27;20058;-68
2022/12/24 04:57:34;;;;;;;3.28;1.13;;;8.50;99.90;;;;;;5109734;27;20035;-68
2022/12/24 05:00:00;;;;;;;8.35;1.60;;;8.50;99.90;;;;;;5128059;27;20050;-68
2022/12/24 05:02:26;;;;;;;5.93;1.42;;;8.50;99.90;;;;;;5108743;27;20042;-67
2022/12/24 05:04:52;;;;;;;2.60;0.95;;;8.50;99.90;;;;;;5127367;27;20050;-68
2022/12/24 05:07:17;;;;;;;1.90;0.70;;;8.50;99.90;;;;;;5109085;27;20058;-68
2022/12/24 05:09:43;;;;;;;6.72;1.48;;;8.50;99.90;;;;;;5108090;27;20439;-68
2022/12/24 05:12:08;;;;;;;8.82;1.52;;;8.50;99.90;;;;;;5137648;27;20055;-67
2022/12/24 05:14:34;;;;;;;11.52;1.00;;;8.50;99.90;;;;;;5108453;27;20336;-68
2022/12/24 05:17:00;;;;;;;6.63;1.20;;;8.50;99.90;;;;;;5112305;27;20039;-68
2022/12/24 05:19:25;;;;;;;5.95;0.90;;;8.50;99.90;;;;;;5128063;27;20031;-68
2022/12/24 05:27:20;;;;;;;8.15;0.95;;;8.40;99.90;;;;;;5125820;27;20118;-67
2022/12/24 05:29:46;;;;;;;6.80;1.05;;;8.40;99.90;;;;;;5107889;27;20114;-68
2022/12/24 05:32:11;;;;;;;2.13;0.73;;;8.40;99.90;;;;;;5111719;27;20091;-67
2022/12/24 05:34:37;;;;;;;4.20;1.17;;;8.40;99.90;;;;;;5138715;27;20046;-67
2022/12/24 05:37:02;;;;;;;3.50;0.88;;;8.40;99.90;;;;;;5135402;27;20129;-67
2022/12/24 05:39:28;;;;;;;16.35;2.35;;;8.40;99.90;;;;;;5109832;27;20118;-67
2022/12/24 05:41:53;;;;;;;5.10;1.33;;;8.40;99.90;;;;;;5131231;27;20027;-68
2022/12/24 05:44:19;;;;;;;12.10;1.40;;;8.40;99.90;;;;;;5128370;27;20491;-67
2022/12/24 05:46:45;;;;;;;7.13;1.30;;;8.40;99.90;;;;;;5092487;27;20058;-68
2022/12/24 05:49:11;;;;;;;5.68;1.27;;;8.30;99.90;;;;;;5109670;27;20042;-68
2022/12/24 05:51:36;;;;;;;9.20;1.27;;;8.30;99.90;;;;;;5140421;27;21032;-67
2022/12/24 05:54:03;;;;;;;6.65;1.05;;;8.30;99.90;;;;;;5141713;27;20037;-67
2022/12/24 05:56:28;;;;;;;2.00;0.82;;;8.40;99.90;;;;;;5143916;27;20055;-67
2022/12/24 05:58:54;;;;;;;14.68;1.77;;;8.30;99.90;;;;;;5147871;27;20449;-67
2022/12/24 06:01:21;;;;;;;3.17;1.00;;;8.30;99.90;;;;;;5105575;27;20580;-67
2022/12/24 06:03:48;;;;;;;6.13;0.68;;;8.30;99.90;;;;;;5110529;27;20726;-68
2022/12/24 06:06:19;;;;;;;4.38;1.92;;;8.30;99.90;;;;;;5124580;27;20051;-67
2022/12/24 06:08:46;;;;;;;5.78;1.08;;;8.30;99.90;;;;;;5127595;27;20039;-67
2022/12/24 06:11:14;;;;;;;9.15;1.23;;;8.30;99.90;;;;;;5108456;27;20048;-68
2022/12/24 06:13:41;;;;;;;2.08;0.95;;;8.40;99.90;;;;;;5091951;27;20474;-67
2022/12/24 06:16:08;;;;;;;16.48;2.00;;;8.40;99.90;;;;;;5106876;27;20038;-67
2022/12/24 06:18:35;;;;;;;2.85;0.93;;;8.40;99.90;;;;;;5107828;27;20039;-67
2022/12/24 06:21:02;;;;;;;8.38;1.55;;;8.40;99.90;;;;;;5108889;27;20396;-68
2022/12/24 06:23:29;;;;;;;6.35;1.38;;;8.40;99.90;;;;;;5106673;27;20050;-67
2022/12/24 06:25:59;;;;;;;5.03;1.45;;;8.50;99.90;;;;;;5128022;27;20080;-67
2022/12/24 06:28:30;;;;;;;8.63;1.23;;;8.50;99.90;;;;;;5127857;27;20035;-67
2022/12/24 06:30:55;;;;;;;7.32;1.83;;;8.50;99.90;;;;;;5124878;27;20434;-67
2022/12/24 06:33:21;;;;;;;6.28;1.33;;;8.50;99.90;;;;;;5123387;27;20035;-67
2022/12/24 06:35:47;;;;;;;8.55;1.30;;;8.50;99.90;;;;;;5134269;27;20035;-67
2022/12/24 06:38:14;;;;;;;2.67;1.38;;;8.50;99.90;;;;;;5108600;27;20043;-67
2022/12/24 06:40:42;;;;;;;6.07;1.48;;;8.50;99.90;;;;;;5109966;27;20070;-67
2022/12/24 06:43:08;;;;;;;4.65;1.67;;;8.60;99.90;;;;;;5107159;27;20392;-67
2022/12/24 06:45:33;;;;;;;13.82;1.85;;;8.60;99.90;;;;;;5106118;27;20043;-68
2022/12/24 06:47:59;;;;;;;11.63;2.40;;;8.60;99.90;;;;;;5126739;27;20031;-68
2022/12/24 06:50:25;;;;;;;1.60;0.95;;;8.60;99.90;;;;;;5105278;27;20116;-67
2022/12/24 06:52:50;;;;;;;7.22;1.05;;;8.60;99.90;;;;;;5134373;27;20460;-68
2022/12/24 06:55:16;;;;;;;5.93;1.15;;;8.60;99.90;;;;;;5125355;27;20056;-68
2022/12/24 06:57:42;;;;;;;10.48;1.98;;;8.70;99.90;;;;;;5142568;27;20031;-67
2022/12/24 07:00:09;;;;;;;13.10;2.00;;;8.70;99.90;;;;;;5093625;27;20088;-68
2022/12/24 07:02:38;;;;;;;9.50;2.28;;;8.70;99.90;;;;;;5105288;27;20069;-67
2022/12/24 07:05:04;;;;;;;1.60;0.70;;;8.70;99.90;;;;;;5104430;27;20548;-67
2022/12/24 07:07:30;;;;;;;8.60;2.00;;;8.70;99.90;;;;;;5100268;27;20123;-67
2022/12/24 07:09:55;;;;;;;7.68;2.30;;;8.70;99.90;;;;;;5137383;27;20035;-67
2022/12/24 07:12:21;;;;;;;11.57;1.60;;;8.70;99.90;;;;;;5110063;27;20095;-68
2022/12/24 07:14:46;;;;;;;15.00;2.50;;;8.70;99.90;;;;;;5108577;27;20075;-67
2022/12/24 07:17:12;;;;;;;6.03;1.30;;;8.70;99.90;;;;;;5143880;27;20109;-67
2022/12/24 07:19:37;;;;;;;5.53;1.77;;;8.80;99.90;;;;;;5103912;27;20035;-67
2022/12/24 07:22:03;;;;;;;8.85;1.10;;;8.80;99.90;;;;;;5105798;27;20031;-67
2022/12/24 07:24:29;;;;;;;7.47;1.95;;;8.80;99.90;;;;;;5107162;27;20042;-68
2022/12/24 07:26:54;;;;;;;8.15;1.67;;;8.80;99.90;;;;;;5126529;27;20054;-67
2022/12/24 07:29:20;;;;;;;19.52;2.53;;;8.80;99.90;;;;;;5144254;27;20054;-67
2022/12/24 07:31:45;;;;;;;8.88;1.50;;;8.80;99.90;;;;;;5087363;27;20036;-67
2022/12/24 07:34:11;;;;;;;7.50;1.63;;;8.80;99.90;;;;;;5122148;28;20039;-68
2022/12/24 07:36:36;;;;;;;8.30;1.75;;;8.80;99.90;;;;;;5139215;27;20125;-67
2022/12/24 07:39:02;;;;;;;11.07;1.67;;;8.80;99.90;;;;;;5092728;28;20024;-68
2022/12/24 07:41:28;;;;;;;5.65;1.33;;;8.80;99.90;;;;;;5103472;28;20426;-68
2022/12/24 07:43:53;;;;;;;4.03;1.90;;;8.80;99.90;;;;;;5104044;28;20776;-68
2022/12/24 07:46:19;;;;;;;7.10;1.42;;;8.80;99.90;;;;;;5136837;27;20691;-68
2022/12/24 07:48:44;;;;;;;11.93;2.05;;;8.80;99.90;;;;;;5107937;27;20035;-68
2022/12/24 07:51:10;;;;;;;17.95;2.72;;;8.80;99.90;;;;;;5120687;27;20176;-67
2022/12/24 07:53:36;;;;;;;3.53;1.25;;;8.80;99.90;;;;;;5105869;28;20040;-67
2022/12/24 07:56:01;;;;;;;9.85;1.55;;;8.80;99.90;;;;;;5099647;28;20043;-68
2022/12/24 07:58:27;;;;;;;10.45;1.70;;;8.80;99.90;;;;;;5113569;28;20030;-67
2022/12/24 08:00:58;;;;;;;8.77;1.60;;;8.80;99.90;;;;;;5103743;28;20122;-68
2022/12/24 08:03:24;;;;;;;2.55;0.88;;;8.80;99.90;;;;;;5101313;28;20039;-67
2022/12/24 08:05:51;;;;;;;6.25;1.77;;;8.90;99.90;;;;;;5086737;28;20075;-68
2022/12/24 08:08:17;;;;;;;7.00;1.00;;;8.90;99.90;;;;;;5107154;28;20054;-67
2022/12/24 08:10:44;;;;;;;3.35;1.48;;;8.90;99.90;;;;;;5104162;28;20035;-67
2022/12/24 08:13:09;;;;;;;3.13;1.00;;;8.90;99.90;;;;;;5082209;28;20411;-67
2022/12/24 08:15:35;;;;;;;14.63;1.45;;;8.90;99.90;;;;;;5102896;28;20035;-68
2022/12/24 08:18:00;;;;;;;11.13;1.42;;;8.90;99.90;;;;;;5105537;28;20412;-67
2022/12/24 08:20:26;;;;;;;5.50;1.35;;;8.90;99.90;;;;;;5110610;27;20725;-68
2022/12/24 08:22:52;;;;;;;4.35;1.02;;;8.90;99.90;;;;;;5118702;27;20044;-67
2022/12/24 08:25:19;;;;;;;6.85;1.48;;;8.90;99.90;;;;;;5124038;27;20148;-67
2022/12/24 08:27:44;;;;;;;15.40;1.13;;;9.00;99.90;;;;;;5117368;27;20066;-67
2022/12/24 08:30:11;;;;;;;4.50;1.00;;;9.00;99.90;;;;;;5110528;27;20057;-68
2022/12/24 08:32:36;;;;;;;5.47;1.70;;;8.90;99.90;;;;;;5101920;27;20059;-67
2022/12/24 08:35:02;;;;;;;1.95;0.80;;;8.90;99.90;;;;;;5144718;27;20071;-67
2022/12/24 08:37:27;;;;;;;4.28;1.40;;;8.90;99.90;;;;;;5126920;27;20035;-68
2022/12/24 08:39:53;;;;;;;3.25;0.85;;;9.00;99.90;;;;;;5112166;27;20056;-68
2022/12/24 08:42:19;;;;;;;2.85;1.40;;;8.90;99.90;;;;;;5125774;27;20082;-68
2022/12/24 08:44:44;;;;;;;4.00;1.55;;;9.00;99.90;;;;;;5113179;27;20061;-68
2022/12/24 08:47:10;;;;;;;5.18;1.67;;;9.00;99.90;;;;;;5124022;27;20035;-70
2022/12/24 08:49:35;;;;;;;5.20;0.98;;;9.00;99.90;;;;;;5147504;27;20099;-70
2022/12/24 08:52:01;;;;;;;6.18;1.38;;;9.00;99.90;;;;;;5144822;27;20126;-67
2022/12/24 08:54:27;;;;;;;12.10;2.13;;;9.00;99.90;;;;;;5129830;27;20095;-68
2022/12/24 08:56:52;;;;;;;6.13;2.28;;;9.00;99.90;;;;;;5107218;27;20031;-68
2022/12/24 08:59:18;;;;;;;4.93;1.45;;;9.00;99.90;;;;;;5108929;27;20027;-68
2022/12/24 09:01:43;;;;;;;6.00;1.40;;;9.00;99.90;;;;;;5137614;27;20037;-68
2022/12/24 09:04:09;;;;;;;14.48;1.92;;;9.00;99.90;;;;;;5142471;27;20047;-68
2022/12/24 09:06:35;;;;;;;3.67;1.30;;;9.00;99.90;;;;;;5133886;27;20039;-68
2022/12/24 09:09:03;;;;;;;2.25;0.85;;;9.00;99.90;;;;;;5103655;27;20088;-68
2022/12/24 09:11:29;;;;;;;4.00;1.50;;;9.10;99.90;;;;;;5096779;27;20050;-68
2022/12/24 09:13:54;;;;;;;10.25;1.45;;;9.00;99.90;;;;;;5102506;27;20047;-67
2022/12/24 09:16:20;;;;;;;3.08;1.52;;;9.10;99.90;;;;;;5137296;27;20035;-68
2022/12/24 09:18:45;;;;;;;7.78;2.25;;;9.10;99.90;;;;;;5098950;27;20067;-68
2022/12/24 09:21:17;;;;;;;14.65;2.33;;;9.10;99.90;;;;;;5132491;27;20030;-67
2022/12/24 09:23:45;;;;;;;10.43;1.60;;;9.10;99.90;;;;;;5120052;27;20505;-68
2022/12/24 09:26:21;;;;;;;4.20;1.40;;;9.20;99.90;;;;;;5090389;27;20053;-68
2022/12/24 09:28:47;;;;;;;7.90;1.33;;;9.20;99.90;;;;;;5117860;27;20050;-68
2022/12/24 09:31:14;;;;;;;2.90;0.95;;;9.20;99.90;;;;;;5118702;27;20564;-68
2022/12/24 09:33:41;;;;;;;3.55;1.17;;;9.10;99.90;;;;;;5123994;27;20626;-68
2022/12/24 09:36:08;;;;;;;10.07;2.00;;;9.20;99.90;;;;;;5102055;27;20035;-68
2022/12/24 09:38:33;;;;;;;5.68;1.40;;;9.20;99.90;;;;;;5106180;27;20031;-68
2022/12/24 09:41:00;;;;;;;6.45;1.75;;;9.30;99.90;;;;;;5097839;27;20038;-68
2022/12/24 09:43:31;;;;;;;7.65;1.35;;;9.30;99.90;;;;;;5101919;27;20171;-67
2022/12/24 09:46:19;;;;;;;9.00;1.83;;;9.30;99.90;;;;;;5101083;27;20122;-68
2022/12/24 09:48:48;;;;;;;4.72;1.35;;;9.30;99.90;;;;;;5102050;27;20043;-68
2022/12/24 09:51:26;;;;;;;7.68;1.27;;;9.30;99.90;;;;;;5133332;27;21092;-68
2022/12/24 09:54:16;;;;;;;3.05;1.25;;;9.30;99.90;;;;;;5132902;27;20039;-68
2022/12/24 09:56:46;;;;;;;4.85;1.70;;;9.30;99.90;;;;;;5118386;27;20039;-68
2022/12/24 09:59:20;;;;;;;3.63;1.35;;;9.30;99.90;;;;;;5103193;27;20060;-67
2022/12/24 10:01:46;;;;;;;5.28;1.02;;;9.30;99.90;;;;;;5123879;27;20491;-67
2022/12/24 10:04:15;;;;;;;2.72;1.17;;;9.30;99.90;;;;;;5105261;27;20500;-67
2022/12/24 10:07:09;;;;;;;8.25;1.27;;;9.30;99.90;;;;;;5124044;27;21056;-67
2022/12/24 10:09:54;;;;;;;6.70;1.27;;;9.30;99.90;;;;;;5050928;27;20284;-67
2022/12/24 10:12:38;;;;;;;1.65;0.88;;;9.30;99.90;;;;;;5101437;27;20047;-67
2022/12/24 10:15:13;;;;;;;4.93;0.93;;;9.30;99.90;;;;;;5120937;27;20373;-67
2022/12/24 10:18:15;;;;;;;3.03;0.75;;;9.30;99.90;;;;;;5135537;27;20074;-67
2022/12/24 10:21:07;;;;;;;3.38;1.17;;;9.30;99.90;;;;;;5092157;27;20051;-67
2022/12/24 10:23:39;;;;;;;2.85;1.05;;;9.30;99.90;;;;;;5120561;27;21019;-67
2022/12/24 10:26:22;;;;;;;8.35;1.13;;;9.30;99.90;;;;;;5099484;27;20065;-67
2022/12/24 10:28:51;;;;;;;4.60;0.95;;;9.30;99.90;;;;;;5105332;27;20050;-68
2022/12/24 10:31:19;;;;;;;4.90;1.40;;;9.30;99.90;;;;;;5104776;27;20057;-67
2022/12/24 10:33:52;;;;;;;9.05;1.02;;;9.30;99.90;;;;;;5103412;27;20043;-67
2022/12/24 10:36:22;;;;;;;2.65;0.77;;;9.40;99.90;;;;;;5101487;27;20506;-68
2022/12/24 10:38:48;;;;;;;5.90;1.20;;;9.40;99.90;;;;;;5120911;27;20031;-67
2022/12/24 10:41:14;;;;;;;8.15;0.77;;;9.40;99.90;;;;;;5079345;27;20485;-67
2022/12/24 10:43:43;;;;;;;13.02;1.40;;;9.40;99.90;;;;;;5100205;27;20455;-68
2022/12/24 10:46:26;;;;;;;9.10;1.30;;;9.40;99.90;;;;;;5095650;27;20262;-67
2022/12/24 10:48:56;;;;;;;6.32;1.13;;;9.50;99.90;;;;;;5116430;27;20053;-68
2022/12/24 10:51:41;;;;;;;8.85;1.83;;;9.40;99.90;;;;;;5097056;27;20141;-67
2022/12/24 10:54:16;;;;;;;5.57;1.25;;;9.50;99.90;;;;;;5120568;27;20567;-68
2022/12/24 10:56:45;;;;;;;8.27;1.70;;;9.50;99.90;;;;;;5113561;27;20395;-67
2022/12/24 10:59:33;;;;;;;9.50;1.83;;;9.50;99.90;;;;;;5134042;27;20472;-67
2022/12/24 11:02:00;;;;;;;10.07;1.40;;;9.50;99.90;;;;;;5133614;27;20035;-67
2022/12/24 11:04:28;;;;;;;2.42;0.80;;;9.40;99.90;;;;;;5099120;27;20047;-67
2022/12/24 11:07:05;;;;;;;4.30;0.93;;;9.50;99.90;;;;;;5097340;27;20046;-67
2022/12/24 11:09:34;;;;;;;5.57;0.85;;;9.50;99.90;;;;;;5119527;27;20502;-67
2022/12/24 11:12:02;;;;;;;4.75;0.88;;;9.50;99.90;;;;;;5112939;27;20047;-68
2022/12/24 11:14:33;;;;;;;6.40;1.27;;;9.50;99.90;;;;;;5130143;27;20123;-67
2022/12/24 11:17:00;;;;;;;6.13;0.98;;;9.50;99.90;;;;;;5093912;27;20290;-67
2022/12/24 11:19:31;;;;;;;4.75;1.25;;;9.50;99.90;;;;;;5101586;27;20661;-68
2022/12/24 11:22:03;;;;;;;6.75;1.33;;;9.50;99.90;;;;;;5082292;27;20049;-67
2022/12/24 11:24:37;;;;;;;4.75;1.27;;;9.50;99.90;;;;;;5115481;27;20038;-67
2022/12/24 11:27:24;;;;;;;4.43;0.90;;;9.60;99.90;;;;;;5120572;27;20043;-67
2022/12/24 11:29:50;;;;;;;6.90;2.28;;;9.60;99.90;;;;;;5098208;27;20035;-68
2022/12/24 11:32:21;;;;;;;10.98;2.60;;;9.50;99.90;;;;;;5114340;27;20046;-67
2022/12/24 11:34:47;;;;;;;9.77;1.20;;;9.60;99.90;;;;;;5094491;27;20065;-68
2022/12/24 11:37:21;;;;;;;2.85;1.15;;;9.60;99.90;;;;;;5104953;27;20039;-67
2022/12/24 11:39:54;;;;;;;9.15;3.30;;;9.60;99.90;;;;;;5092172;27;20223;-67
2022/12/24 11:42:36;;;;;;;12.23;2.67;;;9.60;99.90;;;;;;5104068;27;20087;-67
2022/12/24 11:45:13;;;;;;;10.18;2.60;;;9.60;99.90;;;;;;5102333;27;20084;-67
2022/12/24 11:47:39;;;;;;;12.85;5.03;;;9.60;99.90;;;;;;5103641;27;20043;-67
2022/12/24 11:50:24;;;;;;;18.67;5.75;;;9.60;99.90;;;;;;5102763;27;20047;-68
2022/12/24 11:53:01;;;;;;;10.05;2.72;;;9.60;99.90;;;;;;5134502;27;20044;-68
2022/12/24 11:55:38;;;;;;;13.85;2.30;;;9.70;99.90;;;;;;5100549;27;20043;-68
2022/12/24 11:58:34;;;;;;;13.27;4.22;;;9.70;99.90;;;;;;5103526;27;20519;-67
2022/12/24 12:01:11;;;;;;;4.78;2.38;;;9.70;99.90;;;;;;5103412;27;20043;-68
2022/12/24 12:03:48;;;;;;;4.15;1.80;;;9.70;99.90;;;;;;5118124;27;20503;-68
2022/12/24 12:06:26;;;;;;;14.25;2.30;;;9.70;99.90;;;;;;5105971;27;20031;-68
2022/12/24 12:08:56;;;;;;;30.98;5.03;;;9.70;99.90;;;;;;5140514;27;20488;-68
2022/12/24 12:11:25;;;;;;;11.18;2.45;;;9.70;99.90;;;;;;5107370;27;20038;-68
2022/12/24 12:13:52;;;;;;;4.82;1.98;;;9.70;99.90;;;;;;5099764;27;20053;-68
2022/12/24 12:16:24;;;;;;;9.63;1.17;;;9.70;99.90;;;;;;5089553;27;20039;-68
2022/12/24 12:19:03;;;;;;;7.78;1.35;;;9.70;99.90;;;;;;5101414;27;20027;-68
2022/12/24 12:21:38;;;;;;;16.00;1.55;;;9.70;99.90;;;;;;5138357;27;20035;-68
2022/12/24 12:24:11;;;;;;;6.47;2.28;;;9.70;99.90;;;;;;5105822;27;20458;-68
2022/12/24 12:26:39;;;;;;;11.65;1.80;;;9.60;99.90;;;;;;5095409;27;20039;-67
2022/12/24 12:29:36;;;;;;;10.35;1.35;;;9.60;99.90;;;;;;5101013;27;20133;-67
2022/12/24 12:32:07;;;;;;;11.77;2.78;;;9.50;99.90;;;;;;5101928;27;20035;-67
2022/12/24 12:35:08;;;;;;;7.15;1.35;;;9.50;99.90;;;;;;5125039;27;20134;-67
2022/12/24 12:37:39;;;;;;;6.53;4.03;;;9.50;99.90;;;;;;5110099;27;20043;-67
2022/12/24 12:40:13;;;;;;;14.93;8.23;;;9.50;99.90;;;;;;5087157;27;20039;-67
2022/12/24 12:42:43;;;;;;;4.65;1.60;;;9.50;99.90;;;;;;5091141;27;20038;-67
2022/12/24 12:45:09;;;;;;;8.98;1.92;;;9.50;99.90;;;;;;5120902;27;20062;-68
2022/12/24 12:48:06;;;;;;;4.38;1.55;;;9.50;99.90;;;;;;5101832;27;20568;-68
2022/12/24 12:50:46;;;;;;;6.50;1.95;;;9.50;99.90;;;;;;5102861;27;20030;-68
2022/12/24 12:53:24;;;;;;;3.95;1.23;;;9.50;99.90;;;;;;5106502;27;20050;-68
2022/12/24 12:56:31;;;;;;;10.95;1.83;;;9.50;99.90;;;;;;5106186;27;20915;-67
2022/12/24 12:59:15;;;;;;;;;;;9.60;99.90;;;;;;5045131;27;20043;-68
2022/12/24 13:02:22;;;;;;;11.27;1.15;;;9.50;99.90;;;;;;5107614;27;20358;-68
2022/12/24 13:05:26;;;;;;;4.35;1.60;;;9.50;99.90;;;;;;5141283;27;20138;-68
2022/12/24 13:08:15;;;;;;;4.10;1.02;;;9.60;99.90;;;;;;5072538;27;20072;-67
2022/12/24 13:10:45;;;;;;;8.15;0.90;;;9.60;99.90;;;;;;5084146;27;20572;-67
2022/12/24 13:13:33;;;;;;;11.77;2.08;;;9.60;99.90;;;;;;5081078;28;20650;-67
2022/12/24 13:16:02;;;;;;;3.47;0.93;;;9.60;99.90;;;;;;5063820;28;20074;-67
2022/12/24 13:18:37;;;;;;;13.00;1.17;;;9.60;99.90;;;;;;5080219;28;20055;-68
2022/12/24 13:21:03;;;;;;;7.40;1.08;;;9.60;99.90;;;;;;5074008;28;20043;-68